X  Tanca Dades meteorològiques de l'aviació METAR     LBPD Plovdiv International Airport
Temperatura
66°F Temperatura
57°F Rosada
73% Humitat



Vent
24 MPH
39 KM/H
11 M/S
21 NUS



270°
O
Condicions actuals

Llum Dutxes Pluja Llum Dutxes Pluja
Pressió 1011.85 (hPa) - 29.88 (inHg)
Visibilitat 6 (milla) - 9.7 (km)
Aeroport
Codi aeroport LBPD

Ubicació: Plovdiv International Airport
Distància: 14 (mi)

Metar:
LBPD 140830Z AUTO 27021G31KT 9999 -SHRA FEW029 BKN062 //////CB 19/14 Q1012 TEMPO VRB25G40KT 3000 TSRA SCT030CB

Temps: 14-06-2024 11:30 EEST